Time;durP1;ratioP1;P1;durP2;ratioP2;P2;SDS_P1;SDS_P2;PMS_P1;PMS_P2;Temp;Humidity;BMP_temperature;BMP_pressure;BME280_temperature;BME280_humidity;BME280_pressure;Samples;Min_cycle;Max_cycle;Signal;HPM_P1;HPM_P2
2023/09/05 00:00:10;;;;;;;5.20;4.70;;;15.50;99.90;;;;;;5069505;28;20499;-81
2023/09/05 00:02:40;;;;;;;5.68;4.95;;;15.50;99.90;;;;;;5076425;28;20059;-81
2023/09/05 00:05:07;;;;;;;5.25;4.75;;;15.50;99.90;;;;;;5069069;28;20048;-81
2023/09/05 00:07:37;;;;;;;6.82;4.85;;;15.50;99.90;;;;;;5074030;28;20032;-80
2023/09/05 00:10:04;;;;;;;6.30;4.70;;;15.50;99.90;;;;;;5079014;28;20056;-80
2023/09/05 00:12:30;;;;;;;4.78;4.38;;;15.50;99.90;;;;;;5068790;28;20083;-80
2023/09/05 00:14:56;;;;;;;5.25;4.72;;;15.50;99.90;;;;;;5070209;28;20135;-80
2023/09/05 00:17:22;;;;;;;6.95;5.03;;;15.40;99.90;;;;;;5071299;28;20040;-80
2023/09/05 00:19:49;;;;;;;5.97;5.03;;;15.40;99.90;;;;;;5051622;28;20109;-81
2023/09/05 00:22:15;;;;;;;7.82;4.97;;;15.40;99.90;;;;;;5067949;28;20152;-80
2023/09/05 00:24:42;;;;;;;6.38;5.10;;;15.40;99.90;;;;;;5070089;28;20063;-80
2023/09/05 00:27:11;;;;;;;5.00;4.60;;;15.30;99.90;;;;;;5075235;28;20063;-80
2023/09/05 00:29:38;;;;;;;6.30;4.88;;;15.30;99.90;;;;;;5076833;28;20079;-80
2023/09/05 00:32:04;;;;;;;5.25;4.75;;;15.30;99.90;;;;;;5069319;28;20044;-80
2023/09/05 00:34:33;;;;;;;5.93;4.85;;;15.30;99.90;;;;;;5076144;28;20056;-80
2023/09/05 00:37:00;;;;;;;5.32;4.82;;;15.30;99.90;;;;;;5063999;28;20437;-80
2023/09/05 00:39:30;;;;;;;7.55;5.57;;;15.30;99.90;;;;;;5068158;28;20056;-80
2023/09/05 00:41:56;;;;;;;5.88;5.28;;;15.30;99.90;;;;;;5074608;28;20178;-80
2023/09/05 00:44:25;;;;;;;9.45;5.30;;;15.30;99.90;;;;;;5070946;28;20056;-80
2023/09/05 00:46:52;;;;;;;7.18;5.68;;;15.30;99.90;;;;;;5085446;28;20473;-80
2023/09/05 00:49:22;;;;;;;6.30;5.53;;;15.20;99.90;;;;;;5070867;28;20060;-81
2023/09/05 00:51:52;;;;;;;5.93;5.32;;;15.20;99.90;;;;;;5069967;28;20055;-80
2023/09/05 00:54:18;;;;;;;5.88;4.78;;;15.20;99.90;;;;;;5087086;28;20051;-80
2023/09/05 00:56:45;;;;;;;5.47;4.97;;;15.20;99.90;;;;;;5090498;28;20040;-80
2023/09/05 00:59:10;;;;;;;5.78;5.18;;;15.20;99.90;;;;;;5082803;28;20502;-80
2023/09/05 01:01:37;;;;;;;6.82;5.28;;;15.10;99.90;;;;;;5076346;28;20040;-80
2023/09/05 01:04:03;;;;;;;7.25;5.30;;;15.10;99.90;;;;;;5083175;28;20044;-80
2023/09/05 01:06:39;;;;;;;5.85;5.35;;;15.00;99.90;;;;;;5087732;28;20072;-80
2023/09/05 01:09:25;;;;;;;6.22;5.63;;;15.00;99.90;;;;;;5072092;28;20032;-80
2023/09/05 01:11:50;;;;;;;6.50;5.90;;;15.00;99.90;;;;;;5069316;28;20040;-80
2023/09/05 01:14:16;;;;;;;6.45;5.82;;;15.00;99.90;;;;;;5085072;28;20055;-80
2023/09/05 01:16:45;;;;;;;6.85;5.93;;;14.90;99.90;;;;;;5075862;28;20040;-80
2023/09/05 01:19:16;;;;;;;6.45;5.80;;;14.90;99.90;;;;;;5067504;28;20041;-80
2023/09/05 01:22:01;;;;;;;6.97;5.82;;;14.90;99.90;;;;;;5069522;28;20044;-80
2023/09/05 01:24:26;;;;;;;6.53;5.90;;;14.80;99.90;;;;;;5069156;28;20448;-80
2023/09/05 01:26:54;;;;;;;7.28;6.18;;;14.80;99.90;;;;;;5069416;28;20082;-80
2023/09/05 01:29:26;;;;;;;6.97;6.28;;;14.80;99.90;;;;;;5071021;28;20071;-80
2023/09/05 01:31:53;;;;;;;7.10;6.40;;;14.70;99.90;;;;;;5069915;28;20044;-80
2023/09/05 01:34:19;;;;;;;7.15;6.47;;;14.70;99.90;;;;;;5079117;28;20493;-80
2023/09/05 01:36:44;;;;;;;7.65;6.40;;;14.70;99.90;;;;;;5089543;28;20051;-80
2023/09/05 01:39:10;;;;;;;7.20;6.50;;;14.70;99.90;;;;;;5086701;28;20052;-80
2023/09/05 01:41:36;;;;;;;7.88;6.70;;;14.70;99.90;;;;;;5089588;28;20513;-80
2023/09/05 01:44:01;;;;;;;8.18;7.00;;;14.70;99.90;;;;;;5074671;28;20047;-80
2023/09/05 01:46:27;;;;;;;7.60;6.90;;;14.60;99.90;;;;;;5083278;28;20036;-80
2023/09/05 01:48:52;;;;;;;11.88;7.57;;;14.60;99.90;;;;;;5067052;28;20092;-80
2023/09/05 01:51:18;;;;;;;7.78;6.97;;;14.60;99.90;;;;;;5069045;28;20114;-80
2023/09/05 01:53:43;;;;;;;8.48;6.78;;;14.60;99.90;;;;;;5068277;28;20063;-80
2023/09/05 01:56:09;;;;;;;7.47;6.78;;;14.60;99.90;;;;;;5069110;28;20123;-80
2023/09/05 01:58:34;;;;;;;8.52;7.68;;;14.50;99.90;;;;;;5069191;28;20040;-80
2023/09/05 02:01:03;;;;;;;8.75;7.10;;;14.50;99.90;;;;;;5066201;28;20037;-80
2023/09/05 02:03:29;;;;;;;9.32;8.07;;;14.50;99.90;;;;;;5067091;28;20158;-80
2023/09/05 02:05:55;;;;;;;8.60;7.72;;;14.50;99.90;;;;;;5067459;28;20738;-80
2023/09/05 02:08:21;;;;;;;10.13;8.30;;;14.50;99.90;;;;;;5068669;28;20092;-80
2023/09/05 02:10:47;;;;;;;12.07;8.10;;;14.50;99.90;;;;;;5068687;28;20044;-80
2023/09/05 02:13:13;;;;;;;9.40;8.45;;;14.50;99.90;;;;;;5067741;28;20044;-80
2023/09/05 02:15:38;;;;;;;9.13;8.20;;;14.60;99.90;;;;;;5086402;28;20044;-80
2023/09/05 02:18:09;;;;;;;11.23;8.93;;;14.60;99.90;;;;;;5084703;28;20786;-80
2023/09/05 02:20:34;;;;;;;10.30;8.70;;;14.60;99.90;;;;;;5068148;28;20048;-80
2023/09/05 02:23:00;;;;;;;10.00;9.00;;;14.60;99.90;;;;;;5084091;28;20044;-80
2023/09/05 02:25:25;;;;;;;9.93;8.98;;;14.60;99.90;;;;;;5068586;28;20436;-80
2023/09/05 02:27:51;;;;;;;11.38;9.10;;;14.60;99.90;;;;;;5066718;28;20082;-80
2023/09/05 02:30:17;;;;;;;9.90;8.32;;;14.60;99.90;;;;;;5068356;28;20071;-80
2023/09/05 02:32:43;;;;;;;9.95;9.05;;;14.50;99.90;;;;;;5066267;28;20537;-80
2023/09/05 02:35:09;;;;;;;11.73;8.88;;;14.50;99.90;;;;;;5083687;28;20045;-80
2023/09/05 02:37:34;;;;;;;10.30;8.40;;;14.50;99.90;;;;;;5069192;28;20106;-80
2023/09/05 02:40:00;;;;;;;10.40;8.93;;;14.50;99.90;;;;;;5088141;28;20101;-80
2023/09/05 02:42:25;;;;;;;10.60;9.60;;;14.40;99.90;;;;;;5071213;28;20625;-80
2023/09/05 02:44:51;;;;;;;10.90;9.38;;;14.40;99.90;;;;;;5082518;28;20538;-80
2023/09/05 02:47:17;;;;;;;12.77;8.98;;;14.40;99.90;;;;;;5068339;28;20045;-80
2023/09/05 02:49:43;;;;;;;10.35;8.75;;;14.30;99.90;;;;;;5076292;28;20052;-80
2023/09/05 02:52:08;;;;;;;10.10;9.02;;;14.30;99.90;;;;;;5090393;28;20425;-80
2023/09/05 02:54:34;;;;;;;10.38;9.27;;;14.30;99.90;;;;;;5075090;28;20048;-80
2023/09/05 02:56:59;;;;;;;10.98;9.02;;;14.30;99.90;;;;;;5072562;28;20097;-80
2023/09/05 02:59:26;;;;;;;9.98;8.98;;;14.20;99.90;;;;;;5083119;28;20131;-80
2023/09/05 03:01:52;;;;;;;11.02;9.32;;;14.20;99.90;;;;;;5076437;28;20086;-80
2023/09/05 03:04:17;;;;;;;11.52;9.38;;;14.20;99.90;;;;;;5071514;28;20044;-80
2023/09/05 03:06:43;;;;;;;12.40;9.88;;;14.20;99.90;;;;;;5070576;28;20085;-80
2023/09/05 03:09:09;;;;;;;10.52;9.52;;;14.20;99.90;;;;;;5071817;28;20041;-80
2023/09/05 03:11:34;;;;;;;10.45;9.38;;;14.20;99.90;;;;;;5071597;28;20405;-80
2023/09/05 03:14:01;;;;;;;11.15;9.68;;;14.10;99.90;;;;;;5071326;28;20546;-80
2023/09/05 03:16:28;;;;;;;10.27;9.27;;;14.10;99.90;;;;;;5081877;28;20919;-80
2023/09/05 03:18:59;;;;;;;10.35;8.88;;;14.30;99.90;;;;;;5069527;28;20064;-80
2023/09/05 03:21:25;;;;;;;11.30;9.43;;;14.10;99.90;;;;;;5085158;28;20043;-80
2023/09/05 03:23:51;;;;;;;11.15;9.35;;;14.10;99.90;;;;;;5080913;28;20178;-80
2023/09/05 03:26:18;;;;;;;10.25;8.77;;;14.10;99.90;;;;;;5071333;28;20155;-80
2023/09/05 03:28:45;;;;;;;10.60;9.50;;;14.10;99.90;;;;;;5084856;28;20048;-80
2023/09/05 03:31:11;;;;;;;10.00;9.10;;;14.10;99.90;;;;;;5088812;28;20083;-80
2023/09/05 03:33:37;;;;;;;9.98;9.07;;;14.10;99.90;;;;;;5081987;28;20055;-80
2023/09/05 03:36:05;;;;;;;10.50;9.40;;;14.10;99.90;;;;;;5071609;28;20040;-80
2023/09/05 03:38:31;;;;;;;10.93;9.82;;;14.10;99.90;;;;;;5073354;28;20351;-80
2023/09/05 03:40:57;;;;;;;10.38;9.38;;;14.00;99.90;;;;;;5080044;28;20058;-80
2023/09/05 03:43:23;;;;;;;11.05;8.90;;;14.00;99.90;;;;;;5085350;28;20044;-80
2023/09/05 03:45:49;;;;;;;9.63;8.73;;;14.00;99.90;;;;;;5072598;28;20071;-80
2023/09/05 03:48:14;;;;;;;10.40;9.38;;;14.00;99.90;;;;;;5068614;28;20148;-80
2023/09/05 03:50:40;;;;;;;9.77;8.88;;;13.90;99.90;;;;;;5070666;28;20048;-80
2023/09/05 03:53:06;;;;;;;10.55;9.45;;;13.90;99.90;;;;;;5071860;28;20513;-80
2023/09/05 03:55:34;;;;;;;9.88;8.98;;;13.90;99.90;;;;;;5083118;28;20056;-80
2023/09/05 03:58:00;;;;;;;11.15;9.23;;;13.90;99.90;;;;;;5071252;28;20396;-81
2023/09/05 04:00:26;;;;;;;10.27;9.27;;;13.90;99.90;;;;;;5084706;28;20067;-80
2023/09/05 04:02:51;;;;;;;9.73;8.73;;;13.80;99.90;;;;;;5076105;28;20095;-80
2023/09/05 04:05:17;;;;;;;9.98;9.07;;;13.80;99.90;;;;;;5071019;28;20045;-80
2023/09/05 04:07:43;;;;;;;11.98;9.30;;;13.80;99.90;;;;;;5083118;28;20067;-81
2023/09/05 04:10:08;;;;;;;9.85;8.73;;;13.80;99.90;;;;;;5090086;28;20052;-81
2023/09/05 04:12:34;;;;;;;10.88;9.48;;;13.80;99.90;;;;;;5070654;28;20040;-81
2023/09/05 04:15:00;;;;;;;10.55;9.45;;;13.90;99.90;;;;;;5086176;28;20044;-81
2023/09/05 04:17:25;;;;;;;10.30;9.30;;;13.70;99.90;;;;;;5071404;28;20052;-81
2023/09/05 04:19:54;;;;;;;9.70;8.80;;;13.70;99.90;;;;;;5069467;28;20045;-81
2023/09/05 04:22:21;;;;;;;11.35;9.07;;;13.70;99.90;;;;;;5073582;28;20513;-81
2023/09/05 04:24:54;;;;;;;10.52;9.43;;;13.70;99.90;;;;;;5070520;28;20394;-81
2023/09/05 04:27:21;;;;;;;9.95;8.98;;;13.70;99.90;;;;;;5070132;28;20036;-81
2023/09/05 04:29:50;;;;;;;10.80;9.68;;;13.60;99.90;;;;;;5079711;28;20430;-80
2023/09/05 04:32:17;;;;;;;11.07;9.40;;;13.60;99.90;;;;;;5074748;28;20119;-81
2023/09/05 04:34:43;;;;;;;11.10;9.93;;;13.60;99.90;;;;;;5068943;28;20407;-80
2023/09/05 04:37:08;;;;;;;12.80;9.55;;;13.50;99.90;;;;;;5084494;28;20466;-80
2023/09/05 04:39:34;;;;;;;11.73;9.45;;;13.60;99.90;;;;;;5071147;28;20049;-81
2023/09/05 04:41:59;;;;;;;11.13;9.93;;;13.60;99.90;;;;;;5076082;28;20136;-81
2023/09/05 04:44:27;;;;;;;13.40;10.13;;;13.60;99.90;;;;;;5068206;28;20086;-80
2023/09/05 04:47:12;;;;;;;11.45;10.02;;;13.60;99.90;;;;;;5068782;28;20138;-80
2023/09/05 04:49:38;;;;;;;9.82;8.93;;;13.50;99.90;;;;;;5068504;28;20132;-80
2023/09/05 04:52:04;;;;;;;10.05;9.05;;;13.50;99.90;;;;;;5069579;28;20086;-80
2023/09/05 04:54:29;;;;;;;11.43;9.55;;;13.60;99.90;;;;;;5069871;28;20048;-81
2023/09/05 04:56:56;;;;;;;10.55;9.45;;;13.50;99.90;;;;;;5076569;28;20040;-80
2023/09/05 04:59:21;;;;;;;10.98;9.88;;;13.60;99.90;;;;;;5078847;28;20056;-81
2023/09/05 05:01:47;;;;;;;11.35;10.25;;;13.60;99.90;;;;;;5082826;28;20196;-80
2023/09/05 05:04:13;;;;;;;10.68;9.40;;;13.60;99.90;;;;;;5071568;28;20380;-81
2023/09/05 05:06:38;;;;;;;10.95;9.85;;;13.60;99.90;;;;;;5069784;28;20044;-80
2023/09/05 05:09:04;;;;;;;12.00;9.13;;;13.60;99.90;;;;;;5069779;28;20106;-80
2023/09/05 05:11:29;;;;;;;10.15;9.15;;;13.70;99.90;;;;;;5067265;28;20044;-81
2023/09/05 05:13:55;;;;;;;13.18;9.15;;;13.60;99.90;;;;;;5067987;28;20040;-81
2023/09/05 05:16:20;;;;;;;10.68;9.63;;;13.60;99.90;;;;;;5078479;28;20528;-81
2023/09/05 05:18:46;;;;;;;11.45;9.20;;;13.60;99.90;;;;;;5069213;28;20147;-81
2023/09/05 05:21:11;;;;;;;10.95;9.88;;;13.60;99.90;;;;;;5068503;28;20087;-80
2023/09/05 05:23:37;;;;;;;11.07;9.98;;;13.60;99.90;;;;;;5075654;28;20040;-80
2023/09/05 05:26:02;;;;;;;10.15;8.90;;;13.70;99.90;;;;;;5059751;28;20090;-80
2023/09/05 05:28:28;;;;;;;13.35;10.85;;;13.60;99.90;;;;;;5089060;28;20163;-80
2023/09/05 05:30:54;;;;;;;10.93;9.77;;;13.70;99.90;;;;;;5079489;28;20052;-80
2023/09/05 05:33:19;;;;;;;11.52;10.02;;;13.70;99.90;;;;;;5086878;28;20036;-80
2023/09/05 05:35:52;;;;;;;13.02;10.32;;;13.70;99.90;;;;;;5088646;28;20445;-80
2023/09/05 05:38:17;;;;;;;12.40;10.00;;;13.80;99.90;;;;;;5088802;28;20525;-80
2023/09/05 05:40:43;;;;;;;13.45;11.25;;;13.80;99.90;;;;;;5089365;28;20040;-80
2023/09/05 05:43:08;;;;;;;10.18;9.23;;;13.80;99.90;;;;;;5070851;28;20037;-80
2023/09/05 05:45:34;;;;;;;10.27;9.27;;;13.80;99.90;;;;;;5079816;28;20471;-80
2023/09/05 05:47:59;;;;;;;11.68;10.48;;;13.90;99.90;;;;;;5089557;28;20048;-80
2023/09/05 05:50:25;;;;;;;11.70;10.55;;;13.90;99.90;;;;;;5089409;28;20113;-81
2023/09/05 05:52:50;;;;;;;12.00;10.05;;;14.00;99.90;;;;;;5089692;28;20391;-80
2023/09/05 05:55:16;;;;;;;11.63;9.60;;;14.00;99.90;;;;;;5089894;28;20118;-80
2023/09/05 05:57:42;;;;;;;10.60;8.88;;;14.00;99.90;;;;;;5074817;28;20371;-80
2023/09/05 06:00:08;;;;;;;10.77;9.77;;;14.10;99.90;;;;;;5068986;28;20079;-79
2023/09/05 06:02:33;;;;;;;12.38;10.10;;;14.20;99.90;;;;;;5067631;28;20045;-79
2023/09/05 06:04:59;;;;;;;12.00;9.60;;;14.30;99.90;;;;;;5067749;28;20449;-79
2023/09/05 06:07:25;;;;;;;11.73;10.25;;;14.40;99.90;;;;;;5084386;28;20036;-80
2023/09/05 06:09:51;;;;;;;10.23;9.18;;;14.40;99.90;;;;;;5089649;28;20056;-79
2023/09/05 06:12:16;;;;;;;11.75;9.73;;;14.50;99.90;;;;;;5089852;28;20060;-79
2023/09/05 06:14:42;;;;;;;11.10;9.55;;;14.60;99.90;;;;;;5088202;28;20532;-79
2023/09/05 06:17:07;;;;;;;10.38;9.32;;;14.70;99.90;;;;;;5071978;28;20459;-80
2023/09/05 06:19:33;;;;;;;10.45;9.32;;;14.80;99.90;;;;;;5069392;28;20461;-79
2023/09/05 06:21:58;;;;;;;14.98;9.38;;;15.00;99.90;;;;;;5069141;28;20051;-81
2023/09/05 06:24:25;;;;;;;9.63;8.73;;;15.20;99.90;;;;;;5068529;28;20036;-79
2023/09/05 06:26:50;;;;;;;9.93;8.93;;;15.30;99.90;;;;;;5067684;28;20040;-79
2023/09/05 06:29:16;;;;;;;9.20;8.00;;;15.50;99.90;;;;;;5053762;28;20085;-80
2023/09/05 06:31:42;;;;;;;8.52;7.72;;;15.60;99.90;;;;;;5068102;28;20036;-81
2023/09/05 06:34:07;;;;;;;8.43;7.70;;;15.80;99.90;;;;;;5077290;28;20040;-81
2023/09/05 06:36:33;;;;;;;9.27;8.00;;;15.90;99.90;;;;;;5084653;28;20037;-79
2023/09/05 06:38:58;;;;;;;9.32;8.13;;;16.00;99.90;;;;;;5068268;28;20071;-80
2023/09/05 06:41:24;;;;;;;10.27;7.75;;;16.20;99.90;;;;;;5069380;28;20044;-79
2023/09/05 06:43:50;;;;;;;9.15;7.18;;;16.30;99.90;;;;;;5084330;28;20041;-79
2023/09/05 06:46:15;;;;;;;8.52;7.70;;;16.40;99.90;;;;;;5069709;28;20067;-80
2023/09/05 06:48:41;;;;;;;8.60;7.80;;;16.50;99.90;;;;;;5069259;28;20360;-79
2023/09/05 06:51:06;;;;;;;8.45;7.63;;;16.60;99.90;;;;;;5068660;28;20139;-80
2023/09/05 06:53:33;;;;;;;9.68;7.50;;;16.70;99.90;;;;;;5068562;28;20135;-80
2023/09/05 06:55:58;;;;;;;7.78;7.05;;;17.00;99.90;;;;;;5067678;28;20103;-80
2023/09/05 06:58:26;;;;;;;8.70;7.10;;;17.20;99.90;;;;;;5067936;28;20048;-80
2023/09/05 07:00:56;;;;;;;8.07;7.07;;;17.20;99.90;;;;;;5068631;28;20465;-80
2023/09/05 07:03:25;;;;;;;8.35;7.50;;;17.40;99.90;;;;;;5060432;28;20045;-80
2023/09/05 07:05:52;;;;;;;7.05;6.45;;;17.50;99.90;;;;;;5068572;28;20048;-80
2023/09/05 07:08:18;;;;;;;8.07;6.72;;;17.60;99.90;;;;;;5068653;28;20502;-79
2023/09/05 07:10:45;;;;;;;9.13;6.53;;;17.80;99.90;;;;;;5068683;28;20048;-80
2023/09/05 07:13:10;;;;;;;9.95;6.93;;;17.90;99.90;;;;;;5050566;28;20050;-79
2023/09/05 07:15:36;;;;;;;7.40;6.70;;;18.10;99.90;;;;;;5068242;28;20037;-80
2023/09/05 07:18:02;;;;;;;6.70;6.00;;;18.20;99.90;;;;;;5068365;28;20045;-81
2023/09/05 07:20:27;;;;;;;6.80;5.68;;;18.30;99.90;;;;;;5057973;28;20131;-80
2023/09/05 07:22:53;;;;;;;6.30;5.78;;;18.50;99.90;;;;;;5086098;28;20052;-80
2023/09/05 07:25:18;;;;;;;5.82;5.28;;;18.60;99.90;;;;;;5088696;28;20070;-80
2023/09/05 07:27:44;;;;;;;5.75;5.20;;;18.80;99.90;;;;;;5087289;28;20044;-80
2023/09/05 07:30:10;;;;;;;5.97;5.38;;;18.90;99.90;;;;;;5087593;28;20073;-83
2023/09/05 07:32:36;;;;;;;5.93;5.13;;;19.00;99.90;;;;;;5086378;28;20059;-84
2023/09/05 07:35:03;;;;;;;5.22;4.72;;;19.20;99.90;;;;;;5086136;28;20174;-83
2023/09/05 07:37:28;;;;;;;5.93;5.20;;;19.40;99.90;;;;;;5085806;28;20032;-83
2023/09/05 07:39:54;;;;;;;5.82;5.05;;;19.50;99.90;;;;;;5075191;28;20048;-83
2023/09/05 07:42:20;;;;;;;5.32;4.70;;;19.60;99.90;;;;;;5091233;28;20090;-83
2023/09/05 07:44:45;;;;;;;5.05;4.55;;;19.80;99.90;;;;;;5075034;28;20055;-85
2023/09/05 07:47:11;;;;;;;5.15;4.65;;;19.90;99.90;;;;;;5069852;28;20044;-82
2023/09/05 07:49:37;;;;;;;5.00;4.50;;;20.00;99.90;;;;;;5073114;28;20051;-83
2023/09/05 07:52:04;;;;;;;4.15;3.80;;;20.20;99.90;;;;;;5077798;28;20407;-83
2023/09/05 07:54:29;;;;;;;5.82;4.00;;;20.30;99.90;;;;;;5070636;28;20060;-82
2023/09/05 07:56:55;;;;;;;4.63;3.90;;;20.50;99.90;;;;;;5070944;28;20051;-82
2023/09/05 07:59:21;;;;;;;3.83;3.53;;;20.60;99.90;;;;;;5070447;28;20127;-84
2023/09/05 08:01:46;;;;;;;4.20;3.80;;;20.70;99.90;;;;;;5071110;28;20048;-85
2023/09/05 08:04:12;;;;;;;4.00;3.70;;;20.90;99.90;;;;;;5081912;28;20040;-84
2023/09/05 08:06:37;;;;;;;6.05;3.90;;;21.00;99.90;;;;;;5073688;28;20044;-83
2023/09/05 08:09:03;;;;;;;4.18;3.28;;;21.10;99.90;;;;;;5085867;28;20048;-82
2023/09/05 08:11:28;;;;;;;3.55;3.05;;;21.20;99.90;;;;;;5091746;28;20048;-83
2023/09/05 08:13:54;;;;;;;6.30;3.67;;;21.40;99.90;;;;;;5090932;28;20040;-83
2023/09/05 08:16:20;;;;;;;4.72;2.85;;;21.60;99.90;;;;;;5090185;28;20106;-83
2023/09/05 08:18:45;;;;;;;4.45;2.90;;;21.70;99.90;;;;;;5077964;28;20455;-84
2023/09/05 08:21:11;;;;;;;4.57;3.33;;;21.90;99.90;;;;;;5081809;28;20044;-83
2023/09/05 08:23:36;;;;;;;5.22;3.20;;;22.10;99.90;;;;;;5078688;28;20532;-84
2023/09/05 08:26:02;;;;;;;4.35;2.97;;;22.00;99.90;;;;;;5082437;28;20896;-83
2023/09/05 08:28:33;;;;;;;4.40;3.05;;;22.20;99.90;;;;;;5069476;28;20051;-83
2023/09/05 08:30:59;;;;;;;3.80;3.22;;;22.30;99.90;;;;;;5069396;28;20057;-83
2023/09/05 08:33:26;;;;;;;4.28;3.00;;;22.50;99.90;;;;;;5067343;28;20619;-80
2023/09/05 08:35:53;;;;;;;3.83;2.70;;;22.60;99.90;;;;;;5069596;28;20044;-82
2023/09/05 08:38:18;;;;;;;3.03;2.72;;;22.70;99.90;;;;;;5069109;28;20402;-82
2023/09/05 08:40:47;;;;;;;4.05;2.38;;;22.80;99.90;;;;;;5069633;28;20048;-81
2023/09/05 08:43:15;;;;;;;2.80;2.03;;;23.00;99.90;;;;;;5069004;28;20469;-82
2023/09/05 08:45:44;;;;;;;9.23;2.28;;;23.10;99.90;;;;;;5067845;28;20055;-82
2023/09/05 08:48:10;;;;;;;3.30;2.17;;;23.30;99.90;;;;;;5066174;28;20084;-82
2023/09/05 08:50:37;;;;;;;3.03;2.50;;;23.20;99.90;;;;;;5069043;28;20095;-82
2023/09/05 08:53:11;;;;;;;4.25;2.40;;;23.30;99.90;;;;;;5068304;28;20052;-82
2023/09/05 08:55:40;;;;;;;3.28;1.90;;;23.40;99.90;;;;;;5068733;28;20086;-82
2023/09/05 08:58:13;;;;;;;2.00;1.90;;;23.50;99.90;;;;;;5069003;28;20422;-81
2023/09/05 09:00:38;;;;;;;2.45;2.25;;;23.60;99.90;;;;;;5083148;28;20048;-83
2023/09/05 09:03:07;;;;;;;5.45;2.40;;;23.70;99.90;;;;;;5088794;28;20063;-83
2023/09/05 09:05:33;;;;;;;3.35;2.28;;;23.90;99.90;;;;;;5089648;28;20509;-81
2023/09/05 09:07:59;;;;;;;4.28;2.30;;;24.10;99.90;;;;;;5089500;28;20113;-84
2023/09/05 09:10:25;;;;;;;4.03;2.50;;;24.20;99.90;;;;;;5081617;28;20048;-82
2023/09/05 09:12:56;;;;;;;2.80;2.17;;;24.30;99.90;;;;;;5083844;28;20045;-82
2023/09/05 09:15:26;;;;;;;3.07;2.03;;;24.50;99.90;;;;;;5069281;28;20043;-82
2023/09/05 09:17:52;;;;;;;2.47;1.95;;;24.50;99.90;;;;;;5067966;28;20049;-81
2023/09/05 09:20:19;;;;;;;2.80;1.80;;;24.70;99.90;;;;;;5068526;28;20121;-82
2023/09/05 09:22:50;;;;;;;2.00;1.80;;;24.80;99.90;;;;;;5068706;28;20087;-83
2023/09/05 09:25:26;;;;;;;2.15;1.80;;;24.90;99.90;;;;;;5068376;28;20051;-85
2023/09/05 09:27:53;;;;;;;2.28;1.95;;;25.00;99.90;;;;;;5081269;28;20044;-84
2023/09/05 09:30:23;;;;;;;2.92;1.80;;;25.20;99.90;;;;;;5070557;28;20041;-85
2023/09/05 09:32:51;;;;;;;2.17;1.80;;;25.10;99.90;;;;;;5068792;28;20080;-85
2023/09/05 09:35:17;;;;;;;3.53;1.75;;;25.20;99.90;;;;;;5082776;28;20512;-83
2023/09/05 09:37:45;;;;;;;2.85;2.00;;;25.30;99.40;;;;;;5074768;28;20122;-84
2023/09/05 09:40:11;;;;;;;1.42;1.33;;;25.40;99.00;;;;;;5072902;28;20684;-85
2023/09/05 09:42:38;;;;;;;2.08;1.75;;;25.40;98.50;;;;;;5078129;28;20044;-84
2023/09/05 09:45:10;;;;;;;2.90;1.98;;;25.50;97.90;;;;;;5073577;28;20120;-84
2023/09/05 09:47:49;;;;;;;4.93;1.80;;;25.50;97.80;;;;;;5084758;28;20044;-84
2023/09/05 09:50:17;;;;;;;3.00;1.90;;;25.70;98.10;;;;;;5069139;28;20148;-85
2023/09/05 09:52:45;;;;;;;5.38;2.25;;;25.80;97.90;;;;;;5068036;28;20045;-84
2023/09/05 09:55:15;;;;;;;2.63;1.80;;;25.80;96.40;;;;;;5065939;28;20051;-84
2023/09/05 09:57:48;;;;;;;3.25;1.73;;;25.80;95.50;;;;;;5067640;28;20048;-84
2023/09/05 10:00:18;;;;;;;3.08;1.50;;;25.80;95.60;;;;;;5066799;28;20037;-84
2023/09/05 10:02:49;;;;;;;3.25;1.65;;;25.90;95.70;;;;;;5068035;28;20059;-84
2023/09/05 10:05:16;;;;;;;2.70;1.95;;;25.90;95.80;;;;;;5081618;28;20048;-85
2023/09/05 10:07:46;;;;;;;4.60;2.22;;;26.10;95.20;;;;;;5067266;28;20044;-85
2023/09/05 10:10:15;;;;;;;4.63;1.73;;;26.00;95.30;;;;;;5083463;28;20064;-84
2023/09/05 10:12:51;;;;;;;1.83;1.70;;;26.30;95.10;;;;;;5068254;28;20041;-84
2023/09/05 10:15:20;;;;;;;7.28;1.70;;;26.20;94.00;;;;;;5067817;28;20049;-84
2023/09/05 10:17:47;;;;;;;2.40;1.40;;;26.20;94.40;;;;;;5067395;28;20044;-85
2023/09/05 10:20:18;;;;;;;4.05;1.65;;;26.30;94.70;;;;;;5067872;28;20497;-82
2023/09/05 10:22:44;;;;;;;2.20;1.40;;;26.30;94.70;;;;;;5067839;28;20032;-82
2023/09/05 10:25:13;;;;;;;2.03;1.30;;;26.50;93.20;;;;;;5067888;28;20047;-82
2023/09/05 10:27:39;;;;;;;2.70;1.38;;;26.70;92.30;;;;;;5067462;28;20095;-82
2023/09/05 10:30:07;;;;;;;1.60;1.50;;;26.80;92.00;;;;;;5067379;28;20076;-83
2023/09/05 10:32:32;;;;;;;2.15;1.40;;;26.80;91.80;;;;;;5066625;28;20079;-83
2023/09/05 10:35:02;;;;;;;1.95;1.30;;;26.70;91.80;;;;;;5067996;28;20078;-82
2023/09/05 10:37:34;;;;;;;4.55;1.80;;;26.90;91.90;;;;;;5067812;28;20124;-83
2023/09/05 10:40:13;;;;;;;1.88;1.42;;;27.00;90.70;;;;;;5067384;28;20135;-83
2023/09/05 10:42:43;;;;;;;1.58;1.38;;;27.10;90.50;;;;;;5066090;28;20041;-83
2023/09/05 10:45:40;;;;;;;4.90;1.70;;;27.10;90.30;;;;;;5068114;28;20432;-83
2023/09/05 10:48:11;;;;;;;4.05;1.50;;;27.20;88.20;;;;;;5066117;28;20122;-83
2023/09/05 10:51:07;;;;;;;1.65;1.55;;;27.30;90.70;;;;;;5066481;28;20075;-83
2023/09/05 10:53:37;;;;;;;1.83;1.70;;;27.40;90.20;;;;;;5066237;28;20048;-83
2023/09/05 10:56:04;;;;;;;1.45;1.20;;;27.50;90.70;;;;;;5083318;28;20494;-84
2023/09/05 10:58:54;;;;;;;2.63;1.48;;;27.60;90.00;;;;;;5067622;28;20540;-82
2023/09/05 11:01:32;;;;;;;2.05;1.20;;;27.60;83.30;;;;;;5066008;28;20052;-82
2023/09/05 11:04:07;;;;;;;1.25;1.15;;;27.70;82.10;;;;;;5065489;28;20094;-82
2023/09/05 11:06:34;;;;;;;1.98;1.17;;;27.70;82.40;;;;;;5066787;28;20048;-83
2023/09/05 11:09:04;;;;;;;2.58;1.17;;;27.80;80.60;;;;;;5066026;28;20058;-82
2023/09/05 11:11:31;;;;;;;1.25;1.10;;;27.70;75.60;;;;;;5056421;28;20136;-83
2023/09/05 11:13:57;;;;;;;1.30;1.10;;;27.80;79.50;;;;;;5052568;28;20054;-83
2023/09/05 11:16:24;;;;;;;1.92;1.20;;;27.90;79.20;;;;;;5071145;28;20106;-83
2023/09/05 11:18:56;;;;;;;2.33;1.40;;;27.90;79.10;;;;;;5069271;28;20045;-82
2023/09/05 11:21:23;;;;;;;1.88;1.33;;;27.90;80.10;;;;;;5069983;28;20045;-83
2023/09/05 11:23:54;;;;;;;1.30;1.20;;;28.00;79.60;;;;;;5053091;28;20042;-82
2023/09/05 11:26:21;;;;;;;2.17;1.30;;;28.10;78.60;;;;;;5070807;28;20064;-83
2023/09/05 11:28:48;;;;;;;1.23;1.13;;;28.10;79.50;;;;;;5070907;28;20044;-83
2023/09/05 11:31:15;;;;;;;2.05;1.15;;;28.10;78.40;;;;;;5070973;28;20048;-83
2023/09/05 11:33:41;;;;;;;2.38;1.20;;;28.20;77.40;;;;;;5070717;28;20052;-85
2023/09/05 11:36:07;;;;;;;1.45;1.10;;;28.20;76.00;;;;;;5081050;28;20681;-85
2023/09/05 11:38:48;;;;;;;1.48;1.20;;;28.20;76.50;;;;;;5090778;28;20142;-84
2023/09/05 11:41:15;;;;;;;1.30;1.20;;;28.20;75.00;;;;;;5091176;28;20062;-83
2023/09/05 11:43:49;;;;;;;1.10;1.00;;;28.30;76.60;;;;;;5090563;28;20504;-83
2023/09/05 11:46:15;;;;;;;1.45;1.10;;;28.20;76.40;;;;;;5090949;28;20126;-83
2023/09/05 11:48:46;;;;;;;1.95;0.90;;;28.40;73.50;;;;;;5089037;28;20089;-83
2023/09/05 11:51:14;;;;;;;1.58;1.20;;;28.50;72.50;;;;;;5075499;28;20514;-83
2023/09/05 11:53:41;;;;;;;2.42;1.30;;;28.50;72.10;;;;;;5070422;28;20093;-83
2023/09/05 11:56:07;;;;;;;3.65;1.20;;;28.50;72.20;;;;;;5070601;28;20071;-83
2023/09/05 11:58:34;;;;;;;2.33;1.30;;;28.40;72.60;;;;;;5070296;28;20102;-83
2023/09/05 12:01:00;;;;;;;1.45;1.17;;;28.40;74.20;;;;;;5069948;28;20131;-82
2023/09/05 12:03:28;;;;;;;2.47;1.20;;;28.50;74.90;;;;;;5070500;28;20163;-83
2023/09/05 12:05:54;;;;;;;1.85;1.55;;;28.50;74.40;;;;;;5070490;28;20059;-83
2023/09/05 12:08:21;;;;;;;2.95;1.25;;;28.50;73.40;;;;;;5070416;28;20040;-84
2023/09/05 12:10:51;;;;;;;1.65;1.20;;;28.50;73.90;;;;;;5069811;28;20045;-83
2023/09/05 12:13:19;;;;;;;1.40;1.30;;;28.60;74.30;;;;;;5070274;28;20056;-83
2023/09/05 12:15:46;;;;;;;1.50;1.20;;;28.50;72.90;;;;;;5069448;28;20458;-83
2023/09/05 12:18:24;;;;;;;1.65;1.17;;;28.60;74.10;;;;;;5068761;28;20521;-83
2023/09/05 12:21:00;;;;;;;2.55;1.35;;;28.70;74.70;;;;;;5074339;28;20508;-83
2023/09/05 12:23:26;;;;;;;1.65;1.40;;;28.80;75.20;;;;;;5070313;28;20054;-83
2023/09/05 12:25:57;;;;;;;1.25;1.15;;;28.80;74.60;;;;;;5089736;28;20036;-83
2023/09/05 12:28:25;;;;;;;2.75;1.35;;;28.90;74.50;;;;;;5089913;28;20052;-84
2023/09/05 12:31:20;;;;;;;1.33;1.10;;;28.90;73.20;;;;;;5066167;28;20048;-83
2023/09/05 12:33:45;;;;;;;2.08;1.15;;;28.90;71.60;;;;;;5083122;28;20036;-82
2023/09/05 12:36:11;;;;;;;2.35;1.25;;;28.90;72.90;;;;;;5088398;28;20205;-82
2023/09/05 12:38:37;;;;;;;1.10;1.00;;;28.90;73.20;;;;;;5084167;28;20041;-82
2023/09/05 12:41:02;;;;;;;1.30;1.00;;;28.90;72.20;;;;;;5081656;28;20055;-84
2023/09/05 12:43:28;;;;;;;1.95;1.20;;;28.90;71.80;;;;;;5078899;28;20183;-84